sensor_id;sensor_type;location;lat;lon;timestamp;P1;durP1;ratioP1;P2;durP2;ratioP2
21444;SDS011;10883;51.946;20.140;2022-12-07T00:01:30;20.55;;;10.57;;
21444;SDS011;10883;51.946;20.140;2022-12-07T00:03:58;18.15;;;10.00;;
21444;SDS011;10883;51.946;20.140;2022-12-07T00:06:31;16.33;;;8.85;;
21444;SDS011;10883;51.946;20.140;2022-12-07T00:08:57;15.82;;;8.07;;
21444;SDS011;10883;51.946;20.140;2022-12-07T00:11:23;15.75;;;8.27;;
21444;SDS011;10883;51.946;20.140;2022-12-07T00:13:56;17.35;;;9.00;;
21444;SDS011;10883;51.946;20.140;2022-12-07T00:16:24;15.68;;;8.80;;
21444;SDS011;10883;51.946;20.140;2022-12-07T00:18:55;15.73;;;9.52;;
21444;SDS011;10883;51.946;20.140;2022-12-07T00:21:22;15.00;;;9.02;;
21444;SDS011;10883;51.946;20.140;2022-12-07T00:23:50;13.02;;;8.48;;
21444;SDS011;10883;51.946;20.140;2022-12-07T00:26:21;18.30;;;10.90;;
21444;SDS011;10883;51.946;20.140;2022-12-07T00:28:52;17.20;;;10.25;;
21444;SDS011;10883;51.946;20.140;2022-12-07T00:31:21;23.38;;;12.55;;
21444;SDS011;10883;51.946;20.140;2022-12-07T00:33:48;17.80;;;11.23;;
21444;SDS011;10883;51.946;20.140;2022-12-07T00:36:15;13.93;;;9.05;;
21444;SDS011;10883;51.946;20.140;2022-12-07T00:38:43;14.93;;;9.00;;
21444;SDS011;10883;51.946;20.140;2022-12-07T00:41:12;17.30;;;10.23;;
21444;SDS011;10883;51.946;20.140;2022-12-07T00:43:40;16.17;;;9.55;;
21444;SDS011;10883;51.946;20.140;2022-12-07T00:46:07;19.55;;;10.07;;
21444;SDS011;10883;51.946;20.140;2022-12-07T00:48:33;21.55;;;13.85;;
21444;SDS011;10883;51.946;20.140;2022-12-07T00:50:59;14.25;;;9.13;;
21444;SDS011;10883;51.946;20.140;2022-12-07T00:53:26;16.98;;;10.82;;
21444;SDS011;10883;51.946;20.140;2022-12-07T00:55:52;17.30;;;10.70;;
21444;SDS011;10883;51.946;20.140;2022-12-07T00:58:18;20.90;;;10.93;;
21444;SDS011;10883;51.946;20.140;2022-12-07T01:00:44;16.52;;;9.98;;
21444;SDS011;10883;51.946;20.140;2022-12-07T01:03:11;15.60;;;9.82;;
21444;SDS011;10883;51.946;20.140;2022-12-07T01:05:38;25.63;;;13.93;;
21444;SDS011;10883;51.946;20.140;2022-12-07T01:08:04;20.23;;;12.82;;
21444;SDS011;10883;51.946;20.140;2022-12-07T01:10:31;24.48;;;14.35;;
21444;SDS011;10883;51.946;20.140;2022-12-07T01:12:58;16.38;;;10.15;;
21444;SDS011;10883;51.946;20.140;2022-12-07T01:15:24;18.73;;;10.57;;
21444;SDS011;10883;51.946;20.140;2022-12-07T01:17:51;19.15;;;10.75;;
21444;SDS011;10883;51.946;20.140;2022-12-07T01:20:16;17.35;;;11.70;;
21444;SDS011;10883;51.946;20.140;2022-12-07T01:22:42;17.40;;;11.57;;
21444;SDS011;10883;51.946;20.140;2022-12-07T01:25:09;19.25;;;12.25;;
21444;SDS011;10883;51.946;20.140;2022-12-07T01:27:36;17.38;;;11.63;;
21444;SDS011;10883;51.946;20.140;2022-12-07T01:30:03;22.38;;;11.98;;
21444;SDS011;10883;51.946;20.140;2022-12-07T01:32:31;20.25;;;13.00;;
21444;SDS011;10883;51.946;20.140;2022-12-07T01:34:57;20.65;;;11.90;;
21444;SDS011;10883;51.946;20.140;2022-12-07T01:37:23;22.60;;;13.48;;
21444;SDS011;10883;51.946;20.140;2022-12-07T01:39:49;23.42;;;13.73;;
21444;SDS011;10883;51.946;20.140;2022-12-07T01:42:16;22.38;;;13.13;;
21444;SDS011;10883;51.946;20.140;2022-12-07T01:47:38;20.50;;;12.68;;
21444;SDS011;10883;51.946;20.140;2022-12-07T01:50:04;18.73;;;11.43;;
21444;SDS011;10883;51.946;20.140;2022-12-07T01:52:31;20.55;;;12.13;;
21444;SDS011;10883;51.946;20.140;2022-12-07T01:55:10;23.33;;;12.40;;
21444;SDS011;10883;51.946;20.140;2022-12-07T01:57:39;19.83;;;12.13;;
21444;SDS011;10883;51.946;20.140;2022-12-07T02:00:08;20.02;;;11.77;;
21444;SDS011;10883;51.946;20.140;2022-12-07T02:02:43;21.33;;;12.95;;
21444;SDS011;10883;51.946;20.140;2022-12-07T02:05:19;27.17;;;14.93;;
21444;SDS011;10883;51.946;20.140;2022-12-07T02:07:45;23.73;;;13.45;;
21444;SDS011;10883;51.946;20.140;2022-12-07T02:10:14;20.13;;;12.45;;
21444;SDS011;10883;51.946;20.140;2022-12-07T02:12:46;23.10;;;12.77;;
21444;SDS011;10883;51.946;20.140;2022-12-07T02:15:14;27.45;;;13.95;;
21444;SDS011;10883;51.946;20.140;2022-12-07T02:20:47;23.00;;;11.95;;
21444;SDS011;10883;51.946;20.140;2022-12-07T02:26:37;23.80;;;13.85;;
21444;SDS011;10883;51.946;20.140;2022-12-07T02:29:21;19.52;;;11.30;;
21444;SDS011;10883;51.946;20.140;2022-12-07T02:37:42;22.45;;;13.07;;
21444;SDS011;10883;51.946;20.140;2022-12-07T02:42:41;23.23;;;13.02;;
21444;SDS011;10883;51.946;20.140;2022-12-07T02:45:11;25.48;;;13.73;;
21444;SDS011;10883;51.946;20.140;2022-12-07T02:47:40;24.45;;;14.07;;
21444;SDS011;10883;51.946;20.140;2022-12-07T02:50:08;24.02;;;13.90;;
21444;SDS011;10883;51.946;20.140;2022-12-07T02:52:34;24.27;;;14.07;;
21444;SDS011;10883;51.946;20.140;2022-12-07T02:55:00;23.80;;;12.95;;
21444;SDS011;10883;51.946;20.140;2022-12-07T02:57:42;24.73;;;13.85;;
21444;SDS011;10883;51.946;20.140;2022-12-07T03:00:14;24.13;;;13.30;;
21444;SDS011;10883;51.946;20.140;2022-12-07T03:05:47;25.90;;;12.93;;
21444;SDS011;10883;51.946;20.140;2022-12-07T03:08:31;22.33;;;13.10;;
21444;SDS011;10883;51.946;20.140;2022-12-07T03:11:21;21.85;;;12.57;;
21444;SDS011;10883;51.946;20.140;2022-12-07T03:14:47;23.92;;;13.23;;
21444;SDS011;10883;51.946;20.140;2022-12-07T03:17:06;25.17;;;14.90;;
21444;SDS011;10883;51.946;20.140;2022-12-07T03:19:38;24.70;;;14.23;;
21444;SDS011;10883;51.946;20.140;2022-12-07T03:22:08;26.90;;;13.77;;
21444;SDS011;10883;51.946;20.140;2022-12-07T03:24:41;25.13;;;14.55;;
21444;SDS011;10883;51.946;20.140;2022-12-07T03:27:16;24.10;;;14.27;;
21444;SDS011;10883;51.946;20.140;2022-12-07T03:29:49;25.48;;;14.80;;
21444;SDS011;10883;51.946;20.140;2022-12-07T03:32:29;27.92;;;13.90;;
21444;SDS011;10883;51.946;20.140;2022-12-07T03:35:17;26.05;;;14.70;;
21444;SDS011;10883;51.946;20.140;2022-12-07T03:37:53;28.95;;;15.93;;
21444;SDS011;10883;51.946;20.140;2022-12-07T03:42:59;24.58;;;12.73;;
21444;SDS011;10883;51.946;20.140;2022-12-07T03:45:41;23.60;;;13.30;;
21444;SDS011;10883;51.946;20.140;2022-12-07T03:56:36;28.85;;;13.90;;
21444;SDS011;10883;51.946;20.140;2022-12-07T03:59:02;28.60;;;13.13;;
21444;SDS011;10883;51.946;20.140;2022-12-07T04:01:28;25.50;;;13.90;;
21444;SDS011;10883;51.946;20.140;2022-12-07T04:03:54;24.00;;;13.70;;
21444;SDS011;10883;51.946;20.140;2022-12-07T04:06:20;22.65;;;12.60;;
21444;SDS011;10883;51.946;20.140;2022-12-07T04:08:45;24.65;;;13.27;;
21444;SDS011;10883;51.946;20.140;2022-12-07T04:11:11;26.15;;;12.80;;
21444;SDS011;10883;51.946;20.140;2022-12-07T04:13:37;23.13;;;12.57;;
21444;SDS011;10883;51.946;20.140;2022-12-07T04:16:29;24.50;;;11.60;;
21444;SDS011;10883;51.946;20.140;2022-12-07T04:18:55;24.05;;;12.82;;
21444;SDS011;10883;51.946;20.140;2022-12-07T04:21:21;23.05;;;12.38;;
21444;SDS011;10883;51.946;20.140;2022-12-07T04:23:46;22.00;;;12.07;;
21444;SDS011;10883;51.946;20.140;2022-12-07T04:26:12;22.55;;;13.00;;
21444;SDS011;10883;51.946;20.140;2022-12-07T04:28:38;20.70;;;12.90;;
21444;SDS011;10883;51.946;20.140;2022-12-07T04:31:04;22.17;;;13.00;;
21444;SDS011;10883;51.946;20.140;2022-12-07T04:33:30;23.23;;;12.85;;
21444;SDS011;10883;51.946;20.140;2022-12-07T04:35:55;20.48;;;12.02;;
21444;SDS011;10883;51.946;20.140;2022-12-07T04:38:21;23.02;;;12.02;;
21444;SDS011;10883;51.946;20.140;2022-12-07T04:40:47;20.47;;;12.17;;
21444;SDS011;10883;51.946;20.140;2022-12-07T04:43:13;22.25;;;12.10;;
21444;SDS011;10883;51.946;20.140;2022-12-07T04:45:38;20.63;;;11.68;;
21444;SDS011;10883;51.946;20.140;2022-12-07T04:48:04;27.85;;;13.73;;
21444;SDS011;10883;51.946;20.140;2022-12-07T04:50:30;26.92;;;14.30;;
21444;SDS011;10883;51.946;20.140;2022-12-07T04:52:56;25.88;;;14.10;;
21444;SDS011;10883;51.946;20.140;2022-12-07T04:55:21;27.40;;;13.20;;
21444;SDS011;10883;51.946;20.140;2022-12-07T04:57:47;23.02;;;13.20;;
21444;SDS011;10883;51.946;20.140;2022-12-07T05:00:13;24.35;;;13.25;;
21444;SDS011;10883;51.946;20.140;2022-12-07T05:02:39;56.70;;;26.08;;
21444;SDS011;10883;51.946;20.140;2022-12-07T05:05:04;45.97;;;25.15;;
21444;SDS011;10883;51.946;20.140;2022-12-07T05:07:30;41.45;;;22.00;;
21444;SDS011;10883;51.946;20.140;2022-12-07T05:09:56;50.20;;;25.95;;
21444;SDS011;10883;51.946;20.140;2022-12-07T05:12:22;35.67;;;20.05;;
21444;SDS011;10883;51.946;20.140;2022-12-07T05:14:48;30.60;;;18.05;;
21444;SDS011;10883;51.946;20.140;2022-12-07T05:17:13;26.60;;;14.95;;
21444;SDS011;10883;51.946;20.140;2022-12-07T05:19:39;25.00;;;13.02;;
21444;SDS011;10883;51.946;20.140;2022-12-07T05:22:05;24.52;;;12.57;;
21444;SDS011;10883;51.946;20.140;2022-12-07T05:24:30;29.92;;;16.15;;
21444;SDS011;10883;51.946;20.140;2022-12-07T05:26:56;35.03;;;19.48;;
21444;SDS011;10883;51.946;20.140;2022-12-07T05:29:22;38.80;;;21.15;;
21444;SDS011;10883;51.946;20.140;2022-12-07T05:31:48;33.45;;;17.65;;
21444;SDS011;10883;51.946;20.140;2022-12-07T05:34:13;19.90;;;11.38;;
21444;SDS011;10883;51.946;20.140;2022-12-07T05:36:39;29.75;;;14.30;;
21444;SDS011;10883;51.946;20.140;2022-12-07T05:39:05;17.83;;;10.10;;
21444;SDS011;10883;51.946;20.140;2022-12-07T05:41:32;16.83;;;8.82;;
21444;SDS011;10883;51.946;20.140;2022-12-07T05:44:16;16.67;;;9.40;;
21444;SDS011;10883;51.946;20.140;2022-12-07T05:46:42;30.75;;;17.33;;
21444;SDS011;10883;51.946;20.140;2022-12-07T05:49:07;22.30;;;12.10;;
21444;SDS011;10883;51.946;20.140;2022-12-07T05:51:33;20.08;;;10.13;;
21444;SDS011;10883;51.946;20.140;2022-12-07T05:53:59;21.00;;;11.37;;
21444;SDS011;10883;51.946;20.140;2022-12-07T05:56:25;22.05;;;11.98;;
21444;SDS011;10883;51.946;20.140;2022-12-07T05:58:51;18.88;;;10.32;;
21444;SDS011;10883;51.946;20.140;2022-12-07T06:01:35;19.70;;;11.80;;
21444;SDS011;10883;51.946;20.140;2022-12-07T06:04:01;13.63;;;9.50;;
21444;SDS011;10883;51.946;20.140;2022-12-07T06:06:27;21.77;;;12.88;;
21444;SDS011;10883;51.946;20.140;2022-12-07T06:08:53;21.85;;;15.35;;
21444;SDS011;10883;51.946;20.140;2022-12-07T06:11:19;23.67;;;15.50;;
21444;SDS011;10883;51.946;20.140;2022-12-07T06:14:03;21.95;;;14.20;;
21444;SDS011;10883;51.946;20.140;2022-12-07T06:16:28;16.90;;;10.15;;
21444;SDS011;10883;51.946;20.140;2022-12-07T06:18:54;15.00;;;9.77;;
21444;SDS011;10883;51.946;20.140;2022-12-07T06:21:20;15.93;;;10.50;;
21444;SDS011;10883;51.946;20.140;2022-12-07T06:23:46;16.52;;;8.57;;
21444;SDS011;10883;51.946;20.140;2022-12-07T06:26:13;13.90;;;8.80;;
21444;SDS011;10883;51.946;20.140;2022-12-07T06:28:39;14.63;;;9.07;;
21444;SDS011;10883;51.946;20.140;2022-12-07T06:31:05;12.57;;;8.20;;
21444;SDS011;10883;51.946;20.140;2022-12-07T06:33:32;20.25;;;11.45;;
21444;SDS011;10883;51.946;20.140;2022-12-07T06:35:58;18.73;;;9.75;;
21444;SDS011;10883;51.946;20.140;2022-12-07T06:38:23;16.45;;;8.20;;
21444;SDS011;10883;51.946;20.140;2022-12-07T06:40:49;13.68;;;8.18;;
21444;SDS011;10883;51.946;20.140;2022-12-07T06:43:15;14.95;;;8.00;;
21444;SDS011;10883;51.946;20.140;2022-12-07T06:45:41;15.43;;;8.82;;
21444;SDS011;10883;51.946;20.140;2022-12-07T06:48:07;15.27;;;8.93;;
21444;SDS011;10883;51.946;20.140;2022-12-07T06:50:33;16.10;;;8.48;;
21444;SDS011;10883;51.946;20.140;2022-12-07T06:52:59;21.08;;;10.57;;
21444;SDS011;10883;51.946;20.140;2022-12-07T06:55:25;24.27;;;12.33;;
21444;SDS011;10883;51.946;20.140;2022-12-07T06:57:50;21.77;;;11.07;;
21444;SDS011;10883;51.946;20.140;2022-12-07T07:00:16;19.50;;;11.23;;
21444;SDS011;10883;51.946;20.140;2022-12-07T07:02:42;22.70;;;12.88;;
21444;SDS011;10883;51.946;20.140;2022-12-07T07:05:08;20.27;;;11.73;;
21444;SDS011;10883;51.946;20.140;2022-12-07T07:07:34;24.02;;;13.23;;
21444;SDS011;10883;51.946;20.140;2022-12-07T07:10:00;21.42;;;11.52;;
21444;SDS011;10883;51.946;20.140;2022-12-07T07:12:25;30.63;;;15.20;;
21444;SDS011;10883;51.946;20.140;2022-12-07T07:14:51;25.25;;;13.10;;
21444;SDS011;10883;51.946;20.140;2022-12-07T07:17:17;30.77;;;15.13;;
21444;SDS011;10883;51.946;20.140;2022-12-07T07:19:43;35.65;;;16.50;;
21444;SDS011;10883;51.946;20.140;2022-12-07T07:22:08;44.90;;;21.75;;
21444;SDS011;10883;51.946;20.140;2022-12-07T07:24:34;137.13;;;41.35;;
21444;SDS011;10883;51.946;20.140;2022-12-07T07:27:00;150.95;;;44.72;;
21444;SDS011;10883;51.946;20.140;2022-12-07T07:29:26;68.28;;;28.73;;
21444;SDS011;10883;51.946;20.140;2022-12-07T07:31:51;42.05;;;18.98;;
21444;SDS011;10883;51.946;20.140;2022-12-07T07:34:17;44.22;;;18.55;;
21444;SDS011;10883;51.946;20.140;2022-12-07T07:36:43;56.47;;;22.10;;
21444;SDS011;10883;51.946;20.140;2022-12-07T07:39:09;36.88;;;18.05;;
21444;SDS011;10883;51.946;20.140;2022-12-07T07:41:37;43.38;;;18.08;;
21444;SDS011;10883;51.946;20.140;2022-12-07T07:44:03;38.80;;;17.60;;
21444;SDS011;10883;51.946;20.140;2022-12-07T07:46:29;32.28;;;16.30;;
21444;SDS011;10883;51.946;20.140;2022-12-07T07:48:55;29.50;;;15.75;;
21444;SDS011;10883;51.946;20.140;2022-12-07T07:51:21;43.25;;;19.42;;
21444;SDS011;10883;51.946;20.140;2022-12-07T07:53:46;34.35;;;17.15;;
21444;SDS011;10883;51.946;20.140;2022-12-07T07:56:12;36.72;;;17.92;;
21444;SDS011;10883;51.946;20.140;2022-12-07T07:58:38;28.80;;;14.80;;
21444;SDS011;10883;51.946;20.140;2022-12-07T08:01:05;30.13;;;14.10;;
21444;SDS011;10883;51.946;20.140;2022-12-07T08:03:31;30.73;;;14.98;;
21444;SDS011;10883;51.946;20.140;2022-12-07T08:05:57;33.15;;;15.00;;
21444;SDS011;10883;51.946;20.140;2022-12-07T08:08:23;29.65;;;13.68;;
21444;SDS011;10883;51.946;20.140;2022-12-07T08:10:49;28.85;;;14.00;;
21444;SDS011;10883;51.946;20.140;2022-12-07T08:13:15;29.80;;;14.70;;
21444;SDS011;10883;51.946;20.140;2022-12-07T08:15:42;28.35;;;13.85;;
21444;SDS011;10883;51.946;20.140;2022-12-07T08:18:10;31.00;;;15.45;;
21444;SDS011;10883;51.946;20.140;2022-12-07T08:20:36;28.88;;;13.93;;
21444;SDS011;10883;51.946;20.140;2022-12-07T08:23:03;33.60;;;14.88;;
21444;SDS011;10883;51.946;20.140;2022-12-07T08:25:29;34.47;;;17.08;;
21444;SDS011;10883;51.946;20.140;2022-12-07T08:27:56;33.10;;;16.50;;
21444;SDS011;10883;51.946;20.140;2022-12-07T08:30:22;31.17;;;15.80;;
21444;SDS011;10883;51.946;20.140;2022-12-07T08:32:48;29.15;;;15.00;;
21444;SDS011;10883;51.946;20.140;2022-12-07T08:35:14;29.10;;;13.20;;
21444;SDS011;10883;51.946;20.140;2022-12-07T08:37:40;28.13;;;15.48;;
21444;SDS011;10883;51.946;20.140;2022-12-07T08:40:07;29.17;;;14.80;;
21444;SDS011;10883;51.946;20.140;2022-12-07T08:42:35;24.75;;;14.18;;
21444;SDS011;10883;51.946;20.140;2022-12-07T08:45:05;25.40;;;13.60;;
21444;SDS011;10883;51.946;20.140;2022-12-07T08:47:33;23.05;;;13.32;;
21444;SDS011;10883;51.946;20.140;2022-12-07T08:50:05;22.05;;;12.82;;
21444;SDS011;10883;51.946;20.140;2022-12-07T08:52:33;26.13;;;13.23;;
21444;SDS011;10883;51.946;20.140;2022-12-07T08:55:00;23.83;;;13.02;;
21444;SDS011;10883;51.946;20.140;2022-12-07T08:57:27;25.40;;;13.50;;
21444;SDS011;10883;51.946;20.140;2022-12-07T08:59:54;27.60;;;15.07;;
21444;SDS011;10883;51.946;20.140;2022-12-07T09:02:19;21.63;;;13.02;;
21444;SDS011;10883;51.946;20.140;2022-12-07T09:04:45;23.55;;;13.68;;
21444;SDS011;10883;51.946;20.140;2022-12-07T09:07:11;22.60;;;12.02;;
21444;SDS011;10883;51.946;20.140;2022-12-07T09:09:37;22.65;;;11.57;;
21444;SDS011;10883;51.946;20.140;2022-12-07T09:12:03;21.58;;;11.25;;
21444;SDS011;10883;51.946;20.140;2022-12-07T09:14:29;19.15;;;10.73;;
21444;SDS011;10883;51.946;20.140;2022-12-07T09:16:55;21.75;;;11.80;;
21444;SDS011;10883;51.946;20.140;2022-12-07T09:19:29;20.60;;;10.93;;
21444;SDS011;10883;51.946;20.140;2022-12-07T09:21:55;22.88;;;11.93;;
21444;SDS011;10883;51.946;20.140;2022-12-07T09:24:20;21.10;;;12.30;;
21444;SDS011;10883;51.946;20.140;2022-12-07T09:26:47;25.83;;;13.50;;
21444;SDS011;10883;51.946;20.140;2022-12-07T09:29:13;23.35;;;13.18;;
21444;SDS011;10883;51.946;20.140;2022-12-07T09:31:39;33.67;;;19.48;;
21444;SDS011;10883;51.946;20.140;2022-12-07T09:34:05;28.52;;;14.48;;
21444;SDS011;10883;51.946;20.140;2022-12-07T09:36:32;36.40;;;19.45;;
21444;SDS011;10883;51.946;20.140;2022-12-07T09:38:58;22.10;;;12.13;;
21444;SDS011;10883;51.946;20.140;2022-12-07T09:41:24;20.42;;;11.80;;
21444;SDS011;10883;51.946;20.140;2022-12-07T09:43:52;21.58;;;11.68;;
21444;SDS011;10883;51.946;20.140;2022-12-07T09:46:29;19.70;;;11.50;;
21444;SDS011;10883;51.946;20.140;2022-12-07T09:49:00;19.80;;;11.18;;
21444;SDS011;10883;51.946;20.140;2022-12-07T09:51:26;25.15;;;13.85;;
21444;SDS011;10883;51.946;20.140;2022-12-07T09:53:53;21.25;;;11.50;;
21444;SDS011;10883;51.946;20.140;2022-12-07T09:56:21;25.23;;;12.60;;
21444;SDS011;10883;51.946;20.140;2022-12-07T09:58:48;21.83;;;10.98;;
21444;SDS011;10883;51.946;20.140;2022-12-07T10:01:17;20.08;;;11.73;;
21444;SDS011;10883;51.946;20.140;2022-12-07T10:06:39;26.60;;;13.60;;
21444;SDS011;10883;51.946;20.140;2022-12-07T10:09:13;33.60;;;16.48;;
21444;SDS011;10883;51.946;20.140;2022-12-07T10:14:34;25.48;;;13.55;;
21444;SDS011;10883;51.946;20.140;2022-12-07T10:17:02;27.25;;;13.43;;
21444;SDS011;10883;51.946;20.140;2022-12-07T10:19:48;30.08;;;15.48;;
21444;SDS011;10883;51.946;20.140;2022-12-07T10:22:15;31.98;;;16.15;;
21444;SDS011;10883;51.946;20.140;2022-12-07T10:24:42;33.05;;;16.38;;
21444;SDS011;10883;51.946;20.140;2022-12-07T10:27:18;22.48;;;12.57;;
21444;SDS011;10883;51.946;20.140;2022-12-07T10:29:53;24.65;;;14.13;;
21444;SDS011;10883;51.946;20.140;2022-12-07T10:34:44;25.92;;;13.82;;
21444;SDS011;10883;51.946;20.140;2022-12-07T10:39:45;27.20;;;14.77;;
21444;SDS011;10883;51.946;20.140;2022-12-07T10:42:34;22.98;;;12.73;;
21444;SDS011;10883;51.946;20.140;2022-12-07T10:45:12;23.65;;;12.88;;
21444;SDS011;10883;51.946;20.140;2022-12-07T10:47:44;25.65;;;14.13;;
21444;SDS011;10883;51.946;20.140;2022-12-07T10:50:47;23.35;;;12.43;;
21444;SDS011;10883;51.946;20.140;2022-12-07T10:54:02;38.63;;;19.55;;
21444;SDS011;10883;51.946;20.140;2022-12-07T11:01:45;23.90;;;14.18;;
21444;SDS011;10883;51.946;20.140;2022-12-07T11:10:09;23.00;;;13.90;;
21444;SDS011;10883;51.946;20.140;2022-12-07T11:12:52;23.13;;;12.90;;
21444;SDS011;10883;51.946;20.140;2022-12-07T11:15:55;19.27;;;10.18;;
21444;SDS011;10883;51.946;20.140;2022-12-07T11:24:08;24.10;;;11.50;;
21444;SDS011;10883;51.946;20.140;2022-12-07T11:32:20;15.40;;;9.35;;
21444;SDS011;10883;51.946;20.140;2022-12-07T11:35:05;20.45;;;11.70;;
21444;SDS011;10883;51.946;20.140;2022-12-07T11:37:42;16.08;;;9.75;;
21444;SDS011;10883;51.946;20.140;2022-12-07T11:42:58;16.92;;;9.60;;
21444;SDS011;10883;51.946;20.140;2022-12-07T11:45:37;14.05;;;8.55;;
21444;SDS011;10883;51.946;20.140;2022-12-07T11:50:48;16.90;;;10.45;;
21444;SDS011;10883;51.946;20.140;2022-12-07T11:53:25;40.40;;;20.20;;
21444;SDS011;10883;51.946;20.140;2022-12-07T11:55:57;24.35;;;12.90;;
21444;SDS011;10883;51.946;20.140;2022-12-07T12:03:38;32.00;;;15.13;;
21444;SDS011;10883;51.946;20.140;2022-12-07T12:06:08;37.40;;;17.77;;
21444;SDS011;10883;51.946;20.140;2022-12-07T12:08:46;48.35;;;21.90;;
21444;SDS011;10883;51.946;20.140;2022-12-07T12:22:42;23.50;;;13.73;;
21444;SDS011;10883;51.946;20.140;2022-12-07T12:25:26;26.05;;;14.55;;
21444;SDS011;10883;51.946;20.140;2022-12-07T12:28:29;21.05;;;12.93;;
21444;SDS011;10883;51.946;20.140;2022-12-07T12:31:14;51.33;;;18.80;;
21444;SDS011;10883;51.946;20.140;2022-12-07T12:49:35;19.75;;;11.45;;
21444;SDS011;10883;51.946;20.140;2022-12-07T12:54:35;19.30;;;12.95;;
21444;SDS011;10883;51.946;20.140;2022-12-07T12:59:41;25.42;;;13.88;;
21444;SDS011;10883;51.946;20.140;2022-12-07T13:07:47;36.38;;;17.13;;
21444;SDS011;10883;51.946;20.140;2022-12-07T13:12:59;35.10;;;16.92;;
21444;SDS011;10883;51.946;20.140;2022-12-07T13:15:32;31.52;;;15.45;;
21444;SDS011;10883;51.946;20.140;2022-12-07T13:20:54;31.02;;;16.67;;
21444;SDS011;10883;51.946;20.140;2022-12-07T13:23:24;35.78;;;17.65;;
21444;SDS011;10883;51.946;20.140;2022-12-07T13:34:02;23.40;;;12.70;;
21444;SDS011;10883;51.946;20.140;2022-12-07T13:36:30;26.08;;;13.60;;
21444;SDS011;10883;51.946;20.140;2022-12-07T13:41:58;25.35;;;13.93;;
21444;SDS011;10883;51.946;20.140;2022-12-07T13:44:27;80.90;;;26.13;;
21444;SDS011;10883;51.946;20.140;2022-12-07T13:49:49;96.43;;;30.75;;
21444;SDS011;10883;51.946;20.140;2022-12-07T13:52:19;73.85;;;29.63;;
21444;SDS011;10883;51.946;20.140;2022-12-07T13:54:56;48.60;;;22.60;;
21444;SDS011;10883;51.946;20.140;2022-12-07T13:57:27;44.80;;;18.83;;
21444;SDS011;10883;51.946;20.140;2022-12-07T13:59:55;34.70;;;18.20;;
21444;SDS011;10883;51.946;20.140;2022-12-07T14:02:26;56.55;;;21.48;;
21444;SDS011;10883;51.946;20.140;2022-12-07T14:05:05;47.67;;;20.77;;
21444;SDS011;10883;51.946;20.140;2022-12-07T14:07:33;37.83;;;18.67;;
21444;SDS011;10883;51.946;20.140;2022-12-07T14:10:01;66.68;;;24.35;;
21444;SDS011;10883;51.946;20.140;2022-12-07T14:12:30;46.97;;;25.23;;
21444;SDS011;10883;51.946;20.140;2022-12-07T14:14:57;63.05;;;27.08;;
21444;SDS011;10883;51.946;20.140;2022-12-07T14:17:25;74.05;;;28.75;;
21444;SDS011;10883;51.946;20.140;2022-12-07T14:19:53;52.15;;;23.40;;
21444;SDS011;10883;51.946;20.140;2022-12-07T14:27:50;53.30;;;18.92;;
21444;SDS011;10883;51.946;20.140;2022-12-07T14:30:21;39.97;;;18.77;;
21444;SDS011;10883;51.946;20.140;2022-12-07T14:32:50;39.50;;;19.77;;
21444;SDS011;10883;51.946;20.140;2022-12-07T14:35:19;35.55;;;18.77;;
21444;SDS011;10883;51.946;20.140;2022-12-07T14:37:46;30.85;;;15.13;;
21444;SDS011;10883;51.946;20.140;2022-12-07T14:40:33;36.90;;;17.40;;
21444;SDS011;10883;51.946;20.140;2022-12-07T14:43:02;35.75;;;17.80;;
21444;SDS011;10883;51.946;20.140;2022-12-07T14:45:37;51.00;;;22.87;;
21444;SDS011;10883;51.946;20.140;2022-12-07T14:48:04;51.53;;;22.77;;
21444;SDS011;10883;51.946;20.140;2022-12-07T14:50:30;43.83;;;21.60;;
21444;SDS011;10883;51.946;20.140;2022-12-07T14:53:05;49.20;;;20.73;;
21444;SDS011;10883;51.946;20.140;2022-12-07T14:55:37;43.05;;;23.58;;
21444;SDS011;10883;51.946;20.140;2022-12-07T14:58:03;61.67;;;28.88;;
21444;SDS011;10883;51.946;20.140;2022-12-07T15:00:29;52.40;;;26.10;;
21444;SDS011;10883;51.946;20.140;2022-12-07T15:02:55;64.85;;;28.23;;
21444;SDS011;10883;51.946;20.140;2022-12-07T15:05:22;67.63;;;30.42;;
21444;SDS011;10883;51.946;20.140;2022-12-07T15:07:48;58.33;;;27.48;;
21444;SDS011;10883;51.946;20.140;2022-12-07T15:10:18;56.70;;;27.63;;
21444;SDS011;10883;51.946;20.140;2022-12-07T15:12:54;60.95;;;29.23;;
21444;SDS011;10883;51.946;20.140;2022-12-07T15:15:20;71.15;;;36.08;;
21444;SDS011;10883;51.946;20.140;2022-12-07T15:17:46;70.32;;;32.67;;
21444;SDS011;10883;51.946;20.140;2022-12-07T15:20:12;65.35;;;30.10;;
21444;SDS011;10883;51.946;20.140;2022-12-07T15:22:39;74.17;;;35.87;;
21444;SDS011;10883;51.946;20.140;2022-12-07T15:25:05;73.77;;;33.93;;
21444;SDS011;10883;51.946;20.140;2022-12-07T15:27:33;64.70;;;32.65;;
21444;SDS011;10883;51.946;20.140;2022-12-07T15:29:59;48.42;;;25.65;;
21444;SDS011;10883;51.946;20.140;2022-12-07T15:32:25;52.90;;;26.97;;
21444;SDS011;10883;51.946;20.140;2022-12-07T15:34:50;55.45;;;29.10;;
21444;SDS011;10883;51.946;20.140;2022-12-07T15:37:16;71.25;;;33.85;;
21444;SDS011;10883;51.946;20.140;2022-12-07T15:39:42;91.65;;;44.35;;
21444;SDS011;10883;51.946;20.140;2022-12-07T15:42:08;78.95;;;39.05;;
21444;SDS011;10883;51.946;20.140;2022-12-07T15:44:33;57.97;;;27.75;;
21444;SDS011;10883;51.946;20.140;2022-12-07T15:47:18;54.30;;;25.50;;
21444;SDS011;10883;51.946;20.140;2022-12-07T15:49:43;47.15;;;25.00;;
21444;SDS011;10883;51.946;20.140;2022-12-07T15:52:09;42.70;;;21.92;;
21444;SDS011;10883;51.946;20.140;2022-12-07T15:54:35;45.05;;;23.23;;
21444;SDS011;10883;51.946;20.140;2022-12-07T15:57:01;46.95;;;24.85;;
21444;SDS011;10883;51.946;20.140;2022-12-07T15:59:27;44.80;;;21.70;;
21444;SDS011;10883;51.946;20.140;2022-12-07T16:01:53;32.83;;;19.27;;
21444;SDS011;10883;51.946;20.140;2022-12-07T16:04:19;42.63;;;22.55;;
21444;SDS011;10883;51.946;20.140;2022-12-07T16:06:45;37.92;;;20.52;;
21444;SDS011;10883;51.946;20.140;2022-12-07T16:09:11;36.83;;;20.02;;
21444;SDS011;10883;51.946;20.140;2022-12-07T16:11:37;36.47;;;20.00;;
21444;SDS011;10883;51.946;20.140;2022-12-07T16:14:03;42.17;;;22.58;;
21444;SDS011;10883;51.946;20.140;2022-12-07T16:16:28;33.65;;;16.85;;
21444;SDS011;10883;51.946;20.140;2022-12-07T16:18:55;40.22;;;21.33;;
21444;SDS011;10883;51.946;20.140;2022-12-07T16:21:22;46.58;;;23.60;;
21444;SDS011;10883;51.946;20.140;2022-12-07T16:23:48;38.80;;;21.25;;
21444;SDS011;10883;51.946;20.140;2022-12-07T16:26:15;42.05;;;21.58;;
21444;SDS011;10883;51.946;20.140;2022-12-07T16:28:47;39.83;;;22.77;;
21444;SDS011;10883;51.946;20.140;2022-12-07T16:31:16;28.70;;;16.77;;
21444;SDS011;10883;51.946;20.140;2022-12-07T16:33:43;25.77;;;14.77;;
21444;SDS011;10883;51.946;20.140;2022-12-07T16:36:10;29.65;;;15.23;;
21444;SDS011;10883;51.946;20.140;2022-12-07T16:38:38;26.73;;;14.70;;
21444;SDS011;10883;51.946;20.140;2022-12-07T16:41:07;28.67;;;14.23;;